createdAt,value
2023-04-27T00:00:46.858Z,62.26
2023-04-27T00:03:49.151Z,62.20
2023-04-27T00:06:51.529Z,62.03
2023-04-27T00:09:53.021Z,62.13
2023-04-27T00:12:54.508Z,62.01
2023-04-27T00:15:56.143Z,62.07
2023-04-27T00:18:57.668Z,62.13
2023-04-27T00:22:00.056Z,62.30
2023-04-27T00:25:01.549Z,62.38
2023-04-27T00:28:03.054Z,62.01
2023-04-27T00:31:05.868Z,62.03
2023-04-27T00:34:07.422Z,62.01
2023-04-27T00:37:08.950Z,62.09
2023-04-27T00:40:10.798Z,62.13
2023-04-27T00:43:12.413Z,62.18
2023-04-27T00:46:15.274Z,62.03
2023-04-27T00:49:16.839Z,62.15
2023-04-27T00:52:18.493Z,62.08
2023-04-27T00:55:20.100Z,62.12
2023-04-27T00:58:22.955Z,62.06
2023-04-27T01:01:24.612Z,62.26
2023-04-27T01:04:26.862Z,62.08
2023-04-27T01:07:29.486Z,62.04
2023-04-27T01:10:32.652Z,62.06
2023-04-27T01:13:34.198Z,62.02
2023-04-27T01:16:37.230Z,62.09
2023-04-27T01:19:40.195Z,62.30
2023-04-27T01:22:41.796Z,62.00
2023-04-27T01:25:43.856Z,61.63
2023-04-27T01:28:45.752Z,62.03
2023-04-27T01:31:47.335Z,62.21
2023-04-27T01:34:50.178Z,62.03
2023-04-27T01:37:51.795Z,62.05
2023-04-27T01:40:55.394Z,62.16
2023-04-27T01:43:56.912Z,62.01
2023-04-27T01:46:58.473Z,62.05
2023-04-27T01:50:00.008Z,62.11
2023-04-27T01:53:01.578Z,61.99
2023-04-27T01:56:03.827Z,61.95
2023-04-27T01:59:07.884Z,61.91
2023-04-27T02:02:11.302Z,61.95
2023-04-27T02:05:12.875Z,62.04
2023-04-27T02:08:14.540Z,62.10
2023-04-27T02:11:16.112Z,61.92
2023-04-27T02:14:17.819Z,62.12
2023-04-27T02:17:21.662Z,62.01
2023-04-27T02:20:23.161Z,62.11
2023-04-27T02:23:24.683Z,62.04
2023-04-27T02:26:29.425Z,62.04
2023-04-27T02:29:32.134Z,61.90
2023-04-27T02:32:34.471Z,62.02
2023-04-27T02:35:36.110Z,61.90
2023-04-27T02:38:37.671Z,62.00
2023-04-27T02:41:39.176Z,61.98
2023-04-27T02:44:40.693Z,61.75
2023-04-27T02:47:42.239Z,61.87
2023-04-27T02:50:44.560Z,61.90
2023-04-27T02:53:46.066Z,61.79
2023-04-27T02:56:47.624Z,61.88
2023-04-27T02:59:49.090Z,61.82
2023-04-27T03:02:51.001Z,61.85
2023-04-27T03:05:52.661Z,61.82
2023-04-27T03:08:54.246Z,61.55
2023-04-27T03:11:55.803Z,61.72
2023-04-27T03:14:57.430Z,61.68
2023-04-27T03:17:59.289Z,61.89
2023-04-27T03:21:11.928Z,61.79
2023-04-27T03:24:13.447Z,61.91
2023-04-27T03:27:15.078Z,61.88
2023-04-27T03:30:17.333Z,61.86
2023-04-27T03:33:18.825Z,61.88
2023-04-27T03:36:20.817Z,61.82
2023-04-27T03:39:22.452Z,61.81
2023-04-27T03:42:24.024Z,61.81
2023-04-27T03:45:26.170Z,61.68
2023-04-27T03:48:27.766Z,61.54
2023-04-27T03:51:33.005Z,61.65
2023-04-27T03:54:34.554Z,61.42
2023-04-27T03:57:36.155Z,61.25
2023-04-27T04:00:38.464Z,61.28
2023-04-27T04:03:40.328Z,61.09
2023-04-27T04:06:43.253Z,61.49
2023-04-27T04:09:46.264Z,60.98
2023-04-27T04:12:47.854Z,60.86
2023-04-27T04:15:49.790Z,61.08
2023-04-27T04:18:51.312Z,60.84
2023-04-27T04:21:54.525Z,60.52
2023-04-27T04:24:56.057Z,60.93
2023-04-27T04:27:57.946Z,61.00
2023-04-27T04:31:01.441Z,60.98
2023-04-27T04:34:03.551Z,61.01
2023-04-27T04:37:05.415Z,60.92
2023-04-27T04:40:11.060Z,60.91
2023-04-27T04:43:13.694Z,60.71
2023-04-27T04:46:16.533Z,60.71
2023-04-27T04:49:18.073Z,60.88
2023-04-27T04:52:19.576Z,61.06
2023-04-27T04:55:21.234Z,61.02
2023-04-27T04:58:22.762Z,61.06
2023-04-27T05:01:24.321Z,61.20
2023-04-27T05:04:26.588Z,61.43
2023-04-27T05:07:28.235Z,61.30
2023-04-27T05:10:29.696Z,61.32
2023-04-27T05:13:31.323Z,61.09
2023-04-27T05:16:33.058Z,61.23
2023-04-27T05:19:34.613Z,61.23
2023-04-27T05:22:36.562Z,61.24
2023-04-27T05:25:41.604Z,61.27
2023-04-27T05:28:47.078Z,61.16
2023-04-27T05:31:49.164Z,60.89
2023-04-27T05:34:51.190Z,60.92
2023-04-27T05:37:52.804Z,60.99
2023-04-27T05:40:59.501Z,61.36
2023-04-27T05:44:00.974Z,61.42
2023-04-27T05:47:02.535Z,61.41
2023-04-27T05:50:04.271Z,61.64
2023-04-27T05:53:06.006Z,61.55
2023-04-27T05:56:07.856Z,61.61
2023-04-27T05:59:09.823Z,61.79
2023-04-27T06:02:11.437Z,61.97
2023-04-27T06:05:13.107Z,62.08
2023-04-27T06:08:14.846Z,61.92
2023-04-27T06:11:16.445Z,61.91
2023-04-27T06:14:17.945Z,61.96
2023-04-27T06:17:21.065Z,61.99
2023-04-27T06:20:22.693Z,61.96
2023-04-27T06:23:24.173Z,61.61
2023-04-27T06:26:25.815Z,61.79
2023-04-27T06:29:27.304Z,61.91
2023-04-27T06:32:28.905Z,61.91
2023-04-27T06:35:30.614Z,61.92
2023-04-27T06:38:32.129Z,61.86
2023-04-27T06:41:33.964Z,61.55
2023-04-27T06:44:35.416Z,61.88
2023-04-27T06:47:36.867Z,61.98
2023-04-27T06:50:38.342Z,61.87
2023-04-27T06:53:40.108Z,61.96
2023-04-27T06:56:41.599Z,61.93
2023-04-27T06:59:43.052Z,61.51
2023-04-27T07:02:44.611Z,61.80
2023-04-27T07:05:46.651Z,61.74
2023-04-27T07:08:48.286Z,61.76
2023-04-27T07:11:49.783Z,61.80
2023-04-27T07:14:51.269Z,61.92
2023-04-27T07:17:54.103Z,62.11
2023-04-27T07:20:57.813Z,62.05
2023-04-27T07:23:59.295Z,62.15
2023-04-27T07:27:02.628Z,62.13
2023-04-27T07:30:05.967Z,62.18
2023-04-27T07:33:07.757Z,62.19
2023-04-27T07:36:09.904Z,62.22
2023-04-27T07:39:11.569Z,62.27
2023-04-27T07:42:13.316Z,62.26
2023-04-27T07:45:17.328Z,62.23
2023-04-27T07:48:18.910Z,62.23
2023-04-27T07:51:21.591Z,62.14
2023-04-27T07:54:23.277Z,62.18
2023-04-27T07:57:24.852Z,62.34
2023-04-27T08:00:26.464Z,62.19
2023-04-27T08:03:28.278Z,62.28
2023-04-27T08:06:31.178Z,62.23
2023-04-27T08:09:32.794Z,62.19
2023-04-27T08:12:34.668Z,62.12
2023-04-27T08:15:37.219Z,62.05
2023-04-27T08:18:38.696Z,62.10
2023-04-27T08:21:40.311Z,62.08
2023-04-27T08:24:42.011Z,62.03
2023-04-27T08:27:43.470Z,62.02
2023-04-27T08:30:44.912Z,62.16
2023-04-27T08:33:46.951Z,62.10
2023-04-27T08:36:48.386Z,62.04
2023-04-27T08:39:49.896Z,62.07
2023-04-27T08:42:59.332Z,62.05
2023-04-27T08:46:01.099Z,62.02
2023-04-27T08:49:03.072Z,62.15
2023-04-27T08:52:12.079Z,62.12
2023-04-27T08:55:16.548Z,62.07
2023-04-27T08:58:18.409Z,62.19
2023-04-27T09:01:20.523Z,62.17
2023-04-27T09:04:22.164Z,62.15
2023-04-27T09:07:23.833Z,62.06
2023-04-27T09:10:25.435Z,62.01
2023-04-27T09:13:35.670Z,61.83
2023-04-27T09:16:37.185Z,62.11
2023-04-27T09:19:38.771Z,61.97
2023-04-27T09:22:47.872Z,61.92
2023-04-27T09:25:49.375Z,61.87
2023-04-27T09:28:56.912Z,61.83
2023-04-27T09:31:58.585Z,61.89
2023-04-27T09:35:00.121Z,62.18
2023-04-27T09:38:01.906Z,61.84
2023-04-27T09:41:03.612Z,61.84
2023-04-27T09:44:07.372Z,61.86
2023-04-27T09:47:10.574Z,61.70
2023-04-27T09:50:13.979Z,61.82
2023-04-27T09:53:18.348Z,61.42
2023-04-27T09:56:49.157Z,57.80
2023-04-27T10:00:23.498Z,55.92
2023-04-27T10:03:32.681Z,53.57
2023-04-27T10:06:34.596Z,53.04
2023-04-27T10:09:46.244Z,52.50
2023-04-27T10:13:02.885Z,51.77
2023-04-27T10:16:17.121Z,51.29
2023-04-27T10:19:19.398Z,51.23
2023-04-27T10:22:20.972Z,50.86
2023-04-27T10:25:26.512Z,51.11
2023-04-27T10:28:38.435Z,50.73
2023-04-27T10:31:47.995Z,50.20
2023-04-27T10:34:51.022Z,49.28
2023-04-27T10:37:53.071Z,48.21
2023-04-27T10:41:02.726Z,43.78
2023-04-27T10:44:16.744Z,42.97
2023-04-27T10:47:22.082Z,44.54
2023-04-27T10:50:24.332Z,45.65
2023-04-27T10:53:26.970Z,47.03
2023-04-27T10:56:29.016Z,43.94
2023-04-27T10:59:31.294Z,41.65
2023-04-27T11:02:33.222Z,42.61
2023-04-27T11:05:36.068Z,44.06
2023-04-27T11:08:44.782Z,45.97
2023-04-27T11:11:46.368Z,45.56
2023-04-27T11:14:47.995Z,45.47
2023-04-27T11:17:49.519Z,45.62
2023-04-27T11:20:53.630Z,46.03
2023-04-27T11:23:55.207Z,47.40
2023-04-27T11:26:56.771Z,48.64
2023-04-27T11:29:58.299Z,49.74
2023-04-27T11:33:08.317Z,50.18
2023-04-27T11:36:17.685Z,50.71
2023-04-27T11:39:19.602Z,51.13
2023-04-27T11:42:23.475Z,51.56
2023-04-27T11:45:27.466Z,51.72
2023-04-27T11:48:29.380Z,51.86
2023-04-27T11:51:34.631Z,52.05
2023-04-27T11:54:37.611Z,52.38
2023-04-27T11:57:39.178Z,52.73
2023-04-27T12:00:40.970Z,52.79
2023-04-27T12:03:42.643Z,52.89
2023-04-27T12:06:44.287Z,52.99
2023-04-27T12:09:45.986Z,53.26
2023-04-27T12:12:47.645Z,53.36
2023-04-27T12:15:49.141Z,53.47
2023-04-27T12:18:50.759Z,53.61
2023-04-27T12:21:52.936Z,53.89
2023-04-27T12:24:54.406Z,53.79
2023-04-27T12:27:55.958Z,53.87
2023-04-27T12:30:57.779Z,53.90
2023-04-27T12:33:59.335Z,54.07
2023-04-27T12:37:00.959Z,54.05
2023-04-27T12:40:06.354Z,54.13
2023-04-27T12:43:08.532Z,54.23
2023-04-27T12:46:10.071Z,54.24
2023-04-27T12:49:12.511Z,54.35
2023-04-27T12:52:14.202Z,54.22
2023-04-27T12:55:31.355Z,54.39
2023-04-27T12:58:34.426Z,54.41
2023-04-27T13:01:36.129Z,54.49
2023-04-27T13:04:37.867Z,54.46
2023-04-27T13:07:39.532Z,54.53
2023-04-27T13:10:42.073Z,54.86
2023-04-27T13:13:47.745Z,54.37
2023-04-27T13:16:49.621Z,54.39
2023-04-27T13:19:51.139Z,54.18
2023-04-27T13:22:52.649Z,54.19
2023-04-27T13:25:54.182Z,53.81
2023-04-27T13:28:57.158Z,53.99
2023-04-27T13:32:01.572Z,54.00
2023-04-27T13:35:03.850Z,54.06
2023-04-27T13:38:05.319Z,54.04
2023-04-27T13:41:07.287Z,54.09
2023-04-27T13:44:08.832Z,54.05
2023-04-27T13:47:11.022Z,53.80
2023-04-27T13:50:13.109Z,54.09
2023-04-27T13:53:16.660Z,53.77
2023-04-27T13:56:18.152Z,53.71
2023-04-27T13:59:19.980Z,54.44
2023-04-27T14:02:21.882Z,54.31
2023-04-27T14:05:23.420Z,54.08
2023-04-27T14:08:24.859Z,54.36
2023-04-27T14:11:26.675Z,54.25
2023-04-27T14:14:29.082Z,54.42
2023-04-27T14:17:30.798Z,54.45
2023-04-27T14:20:32.425Z,54.48
2023-04-27T14:23:34.909Z,54.49
2023-04-27T14:26:36.390Z,54.33
2023-04-27T14:29:37.909Z,54.54
2023-04-27T14:32:39.391Z,54.49
2023-04-27T14:35:40.938Z,54.46
2023-04-27T14:38:42.465Z,54.50
2023-04-27T14:41:43.964Z,53.23
2023-04-27T14:44:46.400Z,45.44
2023-04-27T14:47:49.136Z,46.00
2023-04-27T14:50:50.899Z,42.08
2023-04-27T14:53:52.394Z,41.93
2023-04-27T14:56:53.953Z,43.22
2023-04-27T14:59:56.831Z,42.13
2023-04-27T15:02:58.471Z,43.45
2023-04-27T15:06:01.595Z,44.83
2023-04-27T15:09:04.553Z,42.25
2023-04-27T15:12:07.874Z,42.05
2023-04-27T15:15:13.526Z,40.56
2023-04-27T15:18:15.086Z,43.12
2023-04-27T15:21:16.652Z,41.94
2023-04-27T15:24:18.119Z,40.29
2023-04-27T15:27:19.678Z,40.23
2023-04-27T15:30:21.209Z,41.68
2023-04-27T15:33:22.742Z,42.99
2023-04-27T15:36:26.669Z,42.40
2023-04-27T15:39:28.175Z,43.06
2023-04-27T15:42:29.866Z,43.29
2023-04-27T15:45:31.956Z,42.50
2023-04-27T15:48:33.651Z,42.81
2023-04-27T15:51:35.174Z,43.07
2023-04-27T15:54:37.157Z,43.38
2023-04-27T15:57:38.981Z,44.43
2023-04-27T16:00:40.497Z,45.37
2023-04-27T16:03:42.133Z,46.41
2023-04-27T16:06:43.715Z,46.66
2023-04-27T16:09:45.244Z,47.21
2023-04-27T16:12:46.764Z,47.46
2023-04-27T16:15:48.232Z,48.03
2023-04-27T16:18:49.738Z,48.46
2023-04-27T16:21:51.355Z,48.21
2023-04-27T16:24:52.832Z,48.62
2023-04-27T16:27:54.351Z,48.96
2023-04-27T16:30:55.996Z,49.14
2023-04-27T16:33:57.550Z,49.35
2023-04-27T16:36:59.029Z,49.87
2023-04-27T16:40:03.816Z,49.87
2023-04-27T16:43:05.370Z,50.05
2023-04-27T16:46:09.656Z,50.60
2023-04-27T16:49:11.505Z,50.36
2023-04-27T16:52:13.228Z,50.49
2023-04-27T16:55:14.741Z,50.43
2023-04-27T16:58:16.307Z,50.95
2023-04-27T17:01:17.807Z,51.16
2023-04-27T17:04:19.499Z,51.27
2023-04-27T17:07:21.304Z,51.49
2023-04-27T17:10:23.041Z,51.60
2023-04-27T17:13:24.954Z,51.73
2023-04-27T17:16:26.990Z,51.87
2023-04-27T17:19:28.681Z,52.25
2023-04-27T17:22:30.204Z,52.26
2023-04-27T17:25:31.703Z,52.36
2023-04-27T17:28:34.391Z,52.54
2023-04-27T17:31:35.941Z,52.67
2023-04-27T17:34:42.515Z,52.77
2023-04-27T17:37:44.558Z,52.85
2023-04-27T17:40:46.797Z,52.97
2023-04-27T17:43:49.861Z,53.05
2023-04-27T17:46:52.018Z,53.04
2023-04-27T17:49:53.585Z,53.09
2023-04-27T17:52:55.107Z,53.18
2023-04-27T17:55:56.665Z,53.25
2023-04-27T17:58:58.185Z,53.34
2023-04-27T18:01:59.716Z,53.36
2023-04-27T18:05:01.247Z,53.45
2023-04-27T18:08:02.744Z,53.50
2023-04-27T18:11:04.308Z,53.72
2023-04-27T18:14:05.980Z,53.70
2023-04-27T18:17:07.470Z,53.61
2023-04-27T18:20:10.415Z,53.86
2023-04-27T18:23:12.345Z,53.72
2023-04-27T18:26:13.917Z,54.18
2023-04-27T18:29:15.803Z,54.25
2023-04-27T18:32:17.473Z,54.00
2023-04-27T18:35:18.929Z,53.96
2023-04-27T18:38:20.519Z,54.11
2023-04-27T18:41:22.011Z,54.22
2023-04-27T18:44:23.500Z,54.24
2023-04-27T18:47:25.524Z,54.40
2023-04-27T18:50:27.160Z,54.35
2023-04-27T18:53:28.763Z,54.23
2023-04-27T18:56:31.384Z,54.27
2023-04-27T18:59:32.893Z,54.40
2023-04-27T19:02:35.055Z,54.09
2023-04-27T19:05:39.859Z,54.04
2023-04-27T19:08:41.907Z,53.94
2023-04-27T19:11:44.476Z,53.65
2023-04-27T19:14:46.183Z,53.96
2023-04-27T19:17:52.650Z,53.88
2023-04-27T19:20:59.984Z,53.67
2023-04-27T19:24:01.600Z,53.76
2023-04-27T19:27:04.005Z,53.74
2023-04-27T19:30:06.809Z,53.80
2023-04-27T19:33:08.408Z,53.70
2023-04-27T19:36:09.922Z,53.80
2023-04-27T19:39:13.337Z,53.89
2023-04-27T19:42:17.907Z,53.60
2023-04-27T19:45:19.490Z,53.79
2023-04-27T19:48:20.967Z,53.44
2023-04-27T19:51:23.218Z,53.71
2023-04-27T19:54:24.696Z,53.62
2023-04-27T19:57:26.648Z,53.72
2023-04-27T20:00:29.276Z,53.66
2023-04-27T20:03:31.045Z,53.79
2023-04-27T20:06:33.224Z,53.97
2023-04-27T20:09:34.745Z,53.98
2023-04-27T20:15:40.668Z,53.93
2023-04-27T20:18:45.021Z,54.03
2023-04-27T20:21:46.605Z,53.93
2023-04-27T20:24:48.134Z,54.09
2023-04-27T20:27:49.604Z,54.32
2023-04-27T20:30:51.059Z,54.16
2023-04-27T20:33:52.600Z,54.25
2023-04-27T20:36:54.168Z,54.19
2023-04-27T20:39:55.805Z,54.28
2023-04-27T20:42:57.441Z,54.27
2023-04-27T20:45:58.937Z,54.63
2023-04-27T20:49:00.586Z,54.60
2023-04-27T20:52:02.225Z,54.51
2023-04-27T20:55:04.884Z,54.58
2023-04-27T20:58:06.659Z,54.73
2023-04-27T21:01:08.258Z,54.49
2023-04-27T21:04:09.850Z,54.71
2023-04-27T21:07:11.421Z,54.50
2023-04-27T21:10:13.202Z,54.77
2023-04-27T21:13:14.670Z,54.63
2023-04-27T21:16:16.210Z,54.41
2023-04-27T21:19:18.084Z,54.86
2023-04-27T21:22:19.679Z,54.91
2023-04-27T21:25:23.517Z,54.81
2023-04-27T21:28:25.433Z,55.03
2023-04-27T21:31:26.914Z,54.80
2023-04-27T21:34:28.460Z,54.89
2023-04-27T21:37:30.418Z,55.22
2023-04-27T21:40:31.919Z,55.01
2023-04-27T21:43:33.509Z,55.00
2023-04-27T21:46:35.024Z,55.02
2023-04-27T21:49:36.546Z,54.88
2023-04-27T21:52:38.171Z,54.94
2023-04-27T21:55:39.660Z,54.74
2023-04-27T21:58:41.216Z,55.18
2023-04-27T22:01:42.810Z,54.95
2023-04-27T22:04:45.183Z,55.15
2023-04-27T22:07:47.841Z,55.16
2023-04-27T22:10:49.297Z,55.25
2023-04-27T22:13:51.198Z,55.27
2023-04-27T22:16:52.699Z,55.18
2023-04-27T22:19:54.700Z,55.45
2023-04-27T22:22:56.639Z,55.16
2023-04-27T22:25:58.180Z,55.34
2023-04-27T22:28:59.680Z,55.32
2023-04-27T22:32:01.483Z,55.27
2023-04-27T22:35:03.661Z,55.27
2023-04-27T22:38:06.954Z,55.37
2023-04-27T22:41:08.511Z,55.45
2023-04-27T22:44:10.314Z,55.31
2023-04-27T22:47:12.196Z,55.34
2023-04-27T22:50:13.862Z,55.67
2023-04-27T22:53:15.893Z,55.38
2023-04-27T22:56:17.448Z,55.44
2023-04-27T22:59:23.050Z,55.48
2023-04-27T23:02:24.631Z,55.43
2023-04-27T23:05:26.449Z,55.51
2023-04-27T23:08:28.709Z,55.53
2023-04-27T23:11:30.201Z,55.49
2023-04-27T23:14:33.293Z,55.53
2023-04-27T23:17:34.894Z,55.52
2023-04-27T23:20:36.479Z,55.45
2023-04-27T23:23:38.008Z,55.50
2023-04-27T23:26:39.616Z,55.70
2023-04-27T23:29:41.541Z,55.53
2023-04-27T23:32:43.173Z,55.32
2023-04-27T23:35:44.646Z,55.74
2023-04-27T23:38:46.101Z,55.78
2023-04-27T23:41:47.562Z,56.02
2023-04-27T23:44:49.031Z,55.64
2023-04-27T23:47:50.739Z,55.58
2023-04-27T23:50:59.569Z,55.61
2023-04-27T23:54:01.036Z,55.80
2023-04-27T23:57:04.063Z,55.64
